createdAt,value
2018-10-03T00:00:17.925Z,81.95
2018-10-03T00:01:17.556Z,82.09
2018-10-03T00:02:17.608Z,81.9
2018-10-03T00:03:17.602Z,82.22
2018-10-03T00:04:17.542Z,81.86
2018-10-03T00:05:17.614Z,82.12
2018-10-03T00:06:17.677Z,82.26
2018-10-03T00:07:17.547Z,82.28
2018-10-03T00:08:17.653Z,82.37
2018-10-03T00:09:17.557Z,82.35
2018-10-03T00:10:17.637Z,82.52
2018-10-03T00:11:17.687Z,82.42
2018-10-03T00:12:17.605Z,82.45
2018-10-03T00:13:17.649Z,82.43
2018-10-03T00:14:17.551Z,82.43
2018-10-03T00:15:17.624Z,82.68
2018-10-03T00:16:17.650Z,82.58
2018-10-03T00:17:17.692Z,82.66
2018-10-03T00:18:17.594Z,82.69
2018-10-03T00:19:17.573Z,82.75
2018-10-03T00:20:17.610Z,82.58
2018-10-03T00:21:17.523Z,82.66
2018-10-03T00:22:17.556Z,82.7
2018-10-03T00:24:17.592Z,82.4
2018-10-03T00:25:17.602Z,82.37
2018-10-03T00:26:17.785Z,82.45
2018-10-03T00:27:17.606Z,82.61
2018-10-03T00:28:17.621Z,82.55
2018-10-03T00:29:17.637Z,82.37
2018-10-03T00:30:17.583Z,82.41
2018-10-03T00:31:17.526Z,82.42
2018-10-03T00:32:17.551Z,82.19
2018-10-03T00:33:17.935Z,82.28
2018-10-03T00:34:17.570Z,81.92
2018-10-03T00:35:17.549Z,82.12
2018-10-03T00:36:17.560Z,82.16
2018-10-03T00:37:17.563Z,81.92
2018-10-03T00:38:17.580Z,81.86
2018-10-03T00:39:17.626Z,81.73
2018-10-03T00:40:17.533Z,81.75
2018-10-03T00:41:17.551Z,81.59
2018-10-03T00:42:17.483Z,81.57
2018-10-03T00:43:17.504Z,81.32
2018-10-03T00:44:17.561Z,81.34
2018-10-03T00:45:17.502Z,81.35
2018-10-03T00:46:17.547Z,81.29
2018-10-03T00:47:17.495Z,81.19
2018-10-03T00:48:17.525Z,81.06
2018-10-03T00:49:17.511Z,81.14
2018-10-03T00:50:17.517Z,80.97
2018-10-03T00:51:17.522Z,81.02
2018-10-03T00:52:17.491Z,81.07
2018-10-03T00:53:17.473Z,80.97
2018-10-03T00:54:17.492Z,80.88
2018-10-03T00:55:17.447Z,80.78
2018-10-03T00:56:17.465Z,80.95
2018-10-03T00:57:17.502Z,80.92
2018-10-03T00:58:17.499Z,80.92
2018-10-03T00:59:17.476Z,80.81
2018-10-03T01:00:17.504Z,80.99
2018-10-03T01:01:17.518Z,80.8
2018-10-03T01:02:17.488Z,80.85
2018-10-03T01:03:17.581Z,80.93
2018-10-03T01:04:17.682Z,80.97
2018-10-03T01:05:17.795Z,80.95
2018-10-03T01:06:18.098Z,80.76
2018-10-03T01:07:17.484Z,80.92
2018-10-03T01:08:17.784Z,80.91
2018-10-03T01:09:17.547Z,80.94
2018-10-03T01:10:17.441Z,80.98
2018-10-03T01:11:17.520Z,80.82
2018-10-03T01:12:17.465Z,80.96
2018-10-03T01:13:17.508Z,81.04
2018-10-03T01:14:17.653Z,81.04
2018-10-03T01:15:17.476Z,80.94
2018-10-03T01:16:17.562Z,80.96
2018-10-03T01:17:17.483Z,80.9
2018-10-03T01:18:17.536Z,81.08
2018-10-03T01:19:17.511Z,81
2018-10-03T01:20:17.531Z,81
2018-10-03T01:21:17.584Z,81.08
2018-10-03T01:22:17.515Z,80.97
2018-10-03T01:23:17.618Z,81.07
2018-10-03T01:24:17.613Z,80.93
2018-10-03T01:25:17.819Z,80.83
2018-10-03T01:26:17.476Z,80.89
2018-10-03T01:27:17.505Z,80.83
2018-10-03T01:28:17.623Z,80.9
2018-10-03T01:29:18.279Z,80.81
2018-10-03T01:30:17.562Z,80.85
2018-10-03T01:31:17.462Z,80.76
2018-10-03T01:32:17.438Z,80.83
2018-10-03T01:33:17.472Z,80.87
2018-10-03T01:34:17.523Z,80.76
2018-10-03T01:35:17.560Z,80.79
2018-10-03T01:36:17.459Z,80.78
2018-10-03T01:37:17.432Z,80.74
2018-10-03T01:38:17.751Z,80.78
2018-10-03T01:39:17.456Z,80.86
2018-10-03T01:40:17.512Z,80.81
2018-10-03T01:41:17.468Z,80.78
2018-10-03T01:42:17.457Z,80.88
2018-10-03T01:43:17.567Z,80.86
2018-10-03T01:44:17.440Z,80.8
2018-10-03T01:45:17.470Z,80.95
2018-10-03T01:46:17.628Z,80.81
2018-10-03T01:47:17.537Z,80.96
2018-10-03T01:48:17.406Z,80.92
2018-10-03T01:49:17.553Z,80.82
2018-10-03T01:50:17.501Z,80.74
2018-10-03T01:51:17.417Z,80.88
2018-10-03T01:52:17.484Z,80.88
2018-10-03T01:53:17.528Z,80.79
2018-10-03T01:54:17.522Z,80.74
2018-10-03T01:55:17.395Z,80.76
2018-10-03T01:56:17.708Z,80.66
2018-10-03T01:57:17.444Z,80.78
2018-10-03T01:58:17.551Z,80.85
2018-10-03T01:59:17.451Z,80.82
2018-10-03T02:00:17.468Z,80.81
2018-10-03T02:01:17.530Z,80.73
2018-10-03T02:02:17.426Z,80.66
2018-10-03T02:03:17.685Z,80.69
2018-10-03T02:04:17.377Z,80.54
2018-10-03T02:05:17.383Z,80.72
2018-10-03T02:06:17.401Z,80.59
2018-10-03T02:07:17.387Z,80.7
2018-10-03T02:08:17.383Z,80.65
2018-10-03T02:09:17.563Z,80.79
2018-10-03T02:10:17.503Z,80.81
2018-10-03T02:11:17.409Z,80.76
2018-10-03T02:12:17.444Z,80.74
2018-10-03T02:13:17.403Z,80.85
2018-10-03T02:14:17.450Z,80.99
2018-10-03T02:15:17.672Z,81.1
2018-10-03T02:16:17.375Z,81.04
2018-10-03T02:17:17.369Z,80.96
2018-10-03T02:18:17.418Z,80.91
2018-10-03T02:19:17.748Z,81.01
2018-10-03T02:20:17.356Z,81
2018-10-03T02:21:17.359Z,80.89
2018-10-03T02:22:17.378Z,80.92
2018-10-03T02:23:17.372Z,81.13
2018-10-03T02:24:17.344Z,81.32
2018-10-03T02:25:17.360Z,81.11
2018-10-03T02:26:17.441Z,81.05
2018-10-03T02:27:17.404Z,81.09
2018-10-03T02:28:17.385Z,81.23
2018-10-03T02:29:17.359Z,81.11
2018-10-03T02:30:17.358Z,81.19
2018-10-03T02:31:17.638Z,81
2018-10-03T02:32:17.372Z,80.96
2018-10-03T02:33:17.515Z,81.03
2018-10-03T02:34:17.444Z,80.99
2018-10-03T02:35:17.396Z,80.91
2018-10-03T02:36:18.195Z,80.87
2018-10-03T02:37:17.750Z,80.85
2018-10-03T02:38:17.409Z,80.79
2018-10-03T02:39:17.436Z,80.74
2018-10-03T02:40:17.605Z,80.65
2018-10-03T02:41:17.489Z,80.65
2018-10-03T02:42:17.627Z,80.52
2018-10-03T02:43:17.528Z,80.49
2018-10-03T02:44:17.673Z,80.43
2018-10-03T02:45:17.495Z,80.36
2018-10-03T02:46:17.592Z,80.4
2018-10-03T02:47:17.555Z,80.29
2018-10-03T02:48:17.422Z,80.25
2018-10-03T02:49:17.365Z,80.22
2018-10-03T02:50:17.439Z,80.14
2018-10-03T02:51:17.389Z,80.12
2018-10-03T02:52:17.564Z,80.09
2018-10-03T02:53:17.389Z,80.08
2018-10-03T02:54:17.494Z,80.15
2018-10-03T02:55:17.347Z,80.18
2018-10-03T02:56:17.397Z,80.12
2018-10-03T02:57:17.712Z,80.24
2018-10-03T02:58:17.756Z,80.14
2018-10-03T02:59:17.316Z,80.22
2018-10-03T03:00:17.513Z,80.1
2018-10-03T03:01:17.398Z,80.18
2018-10-03T03:02:17.535Z,80.18
2018-10-03T03:03:17.331Z,80.21
2018-10-03T03:04:17.494Z,80.29
2018-10-03T03:05:17.398Z,80.21
2018-10-03T03:06:17.376Z,80.26
2018-10-03T03:07:17.704Z,80.21
2018-10-03T03:08:17.341Z,80.19
2018-10-03T03:09:17.852Z,80.33
2018-10-03T03:10:17.364Z,80.53
2018-10-03T03:11:17.306Z,80.53
2018-10-03T03:12:17.319Z,80.62
2018-10-03T03:13:17.485Z,80.73
2018-10-03T03:14:17.290Z,80.86
2018-10-03T03:15:17.309Z,80.81
2018-10-03T03:16:17.550Z,81.02
2018-10-03T03:17:17.596Z,80.88
2018-10-03T03:18:17.445Z,81.15
2018-10-03T03:19:17.547Z,81.24
2018-10-03T03:20:17.276Z,81.27
2018-10-03T03:21:17.280Z,81.34
2018-10-03T03:22:17.475Z,81.44
2018-10-03T03:23:17.299Z,81.62
2018-10-03T03:24:17.341Z,81.65
2018-10-03T03:25:17.249Z,81.6
2018-10-03T03:26:17.608Z,81.98
2018-10-03T03:27:17.335Z,81.78
2018-10-03T03:28:17.314Z,81.88
2018-10-03T03:29:17.367Z,81.89
2018-10-03T03:30:17.449Z,82.08
2018-10-03T03:31:17.555Z,82.13
2018-10-03T03:32:17.429Z,82.19
2018-10-03T03:33:17.295Z,82.35
2018-10-03T03:34:17.499Z,82.29
2018-10-03T03:35:17.614Z,82.31
2018-10-03T03:36:17.292Z,82.43
2018-10-03T03:37:17.333Z,82.71
2018-10-03T03:38:17.330Z,82.88
2018-10-03T03:39:17.276Z,83.04
2018-10-03T03:40:17.282Z,83.09
2018-10-03T03:41:17.272Z,82.95
2018-10-03T03:42:17.465Z,82.95
2018-10-03T03:43:17.285Z,83.07
2018-10-03T03:44:17.276Z,83.36
2018-10-03T03:45:17.243Z,83.39
2018-10-03T03:46:17.256Z,83.58
2018-10-03T03:47:17.281Z,83.46
2018-10-03T03:48:17.292Z,83.61
2018-10-03T03:49:17.267Z,83.54
2018-10-03T03:50:17.255Z,83.58
2018-10-03T03:51:17.262Z,83.59
2018-10-03T03:52:17.229Z,83.52
2018-10-03T03:53:17.317Z,83.92
2018-10-03T03:54:17.284Z,83.62
2018-10-03T03:55:17.318Z,83.58
2018-10-03T03:56:17.259Z,83.63
2018-10-03T03:57:17.264Z,83.65
2018-10-03T03:58:17.455Z,83.62
2018-10-03T03:59:17.252Z,83.6
2018-10-03T04:00:17.288Z,83.62
2018-10-03T04:01:17.279Z,83.67
2018-10-03T04:02:17.298Z,83.5
2018-10-03T04:03:17.261Z,83.67
2018-10-03T04:04:17.488Z,83.49
2018-10-03T04:05:17.248Z,83.58
2018-10-03T04:06:17.334Z,83.77
2018-10-03T04:07:17.236Z,83.75
2018-10-03T04:08:17.272Z,83.51
2018-10-03T04:09:17.391Z,83.61
2018-10-03T04:10:17.275Z,83.72
2018-10-03T04:11:17.330Z,83.82
2018-10-03T04:12:17.255Z,83.89
2018-10-03T04:13:17.309Z,83.74
2018-10-03T04:14:17.357Z,83.87
2018-10-03T04:15:17.283Z,83.78
2018-10-03T04:16:17.345Z,83.87
2018-10-03T04:17:17.293Z,83.91
2018-10-03T04:18:17.185Z,83.92
2018-10-03T04:19:17.278Z,84
2018-10-03T04:20:17.467Z,84.04
2018-10-03T04:21:17.198Z,84.01
2018-10-03T04:22:17.226Z,83.98
2018-10-03T04:23:17.186Z,83.94
2018-10-03T04:24:17.393Z,84.05
2018-10-03T04:25:17.484Z,84.15
2018-10-03T04:26:17.223Z,84.01
2018-10-03T04:27:17.569Z,84.12
2018-10-03T04:28:17.190Z,83.98
2018-10-03T04:29:17.207Z,84.18
2018-10-03T04:30:17.256Z,84.07
2018-10-03T04:31:17.257Z,84.13
2018-10-03T04:32:17.648Z,84.23
2018-10-03T04:33:17.188Z,84.06
2018-10-03T04:34:17.548Z,83.91
2018-10-03T04:35:17.181Z,83.94
2018-10-03T04:36:17.531Z,84.06
2018-10-03T04:37:17.173Z,84.01
2018-10-03T04:38:17.495Z,83.94
2018-10-03T04:39:17.197Z,83.92
2018-10-03T04:40:17.161Z,83.9
2018-10-03T04:41:17.259Z,83.78
2018-10-03T04:42:17.758Z,83.86
2018-10-03T04:43:17.420Z,83.65
2018-10-03T04:44:17.188Z,83.55
2018-10-03T04:45:17.496Z,83.48
2018-10-03T04:46:17.446Z,83.48
2018-10-03T04:47:17.455Z,83.25
2018-10-03T04:48:17.148Z,83.11
2018-10-03T04:49:17.365Z,82.96
2018-10-03T04:50:17.210Z,82.81
2018-10-03T04:51:17.370Z,82.71
2018-10-03T04:52:17.161Z,82.52
2018-10-03T04:53:17.145Z,82.27
2018-10-03T04:54:17.233Z,82.05
2018-10-03T04:55:17.220Z,81.88
2018-10-03T04:56:17.280Z,81.77
2018-10-03T04:57:17.341Z,81.51
2018-10-03T04:58:17.144Z,81.2
2018-10-03T04:59:17.186Z,81.02
2018-10-03T05:00:17.300Z,80.9
2018-10-03T05:01:17.334Z,80.77
2018-10-03T05:02:17.137Z,80.66
2018-10-03T05:03:17.288Z,80.66
2018-10-03T05:04:17.284Z,80.49
2018-10-03T05:05:17.125Z,80.47
2018-10-03T05:06:17.186Z,80.43
2018-10-03T05:07:17.115Z,80.42
2018-10-03T05:08:17.431Z,80.49
2018-10-03T05:09:17.139Z,80.45
2018-10-03T05:10:17.115Z,80.55
2018-10-03T05:11:17.503Z,80.6
2018-10-03T05:12:17.154Z,80.66
2018-10-03T05:13:17.132Z,80.68
2018-10-03T05:14:17.382Z,80.71
2018-10-03T05:15:17.112Z,80.65
2018-10-03T05:16:17.149Z,80.74
2018-10-03T05:17:17.121Z,80.71
2018-10-03T05:18:17.132Z,80.89
2018-10-03T05:19:17.115Z,80.85
2018-10-03T05:20:17.115Z,80.8
2018-10-03T05:21:17.101Z,80.87
2018-10-03T05:22:17.106Z,81.02
2018-10-03T05:23:17.100Z,81.1
2018-10-03T05:24:17.099Z,81.29
2018-10-03T05:25:17.099Z,81.34
2018-10-03T05:26:17.111Z,81.24
2018-10-03T05:27:17.459Z,81.41
2018-10-03T05:28:17.301Z,81.42
2018-10-03T05:29:17.145Z,81.47
2018-10-03T05:30:17.175Z,81.4
2018-10-03T05:31:17.360Z,81.41
2018-10-03T05:32:17.553Z,81.65
2018-10-03T05:33:17.452Z,81.63
2018-10-03T05:34:17.353Z,81.76
2018-10-03T05:35:17.453Z,81.74
2018-10-03T05:36:17.107Z,81.62
2018-10-03T05:37:17.110Z,81.9
2018-10-03T05:38:17.098Z,81.78
2018-10-03T05:39:17.232Z,81.96
2018-10-03T05:40:17.087Z,81.98
2018-10-03T05:41:17.231Z,81.98
2018-10-03T05:42:17.155Z,82.06
2018-10-03T05:43:17.315Z,82.19
2018-10-03T05:44:17.091Z,82.24
2018-10-03T05:45:17.072Z,82.28
2018-10-03T05:46:17.103Z,82.3
2018-10-03T05:47:17.091Z,82.45
2018-10-03T05:48:17.411Z,82.32
2018-10-03T05:49:17.266Z,82.59
2018-10-03T05:50:17.112Z,82.37
2018-10-03T05:51:17.360Z,82.61
2018-10-03T05:52:17.198Z,82.6
2018-10-03T05:53:17.559Z,82.89
2018-10-03T05:54:17.474Z,83.28
2018-10-03T05:55:17.050Z,83.48
2018-10-03T05:56:17.102Z,83.65
2018-10-03T05:57:17.208Z,84.51
2018-10-03T05:58:17.095Z,85.35
2018-10-03T05:59:17.363Z,85.94
2018-10-03T06:00:17.343Z,86.37
2018-10-03T06:01:17.589Z,86.9
2018-10-03T06:02:17.214Z,87.18
2018-10-03T06:03:17.265Z,87.59
2018-10-03T06:04:17.186Z,87.39
2018-10-03T06:05:17.378Z,88.1
2018-10-03T06:06:17.470Z,88.09
2018-10-03T06:07:17.280Z,88.49
2018-10-03T06:08:17.156Z,88.51
2018-10-03T06:09:17.176Z,88.44
2018-10-03T06:10:17.052Z,88.27
2018-10-03T06:11:17.052Z,88.6
2018-10-03T06:12:17.768Z,88.81
2018-10-03T06:13:17.057Z,88.89
2018-10-03T06:14:17.526Z,88.96
2018-10-03T06:15:17.216Z,88.97
2018-10-03T06:16:17.242Z,89.33
2018-10-03T06:17:17.109Z,89.41
2018-10-03T06:18:17.207Z,89.36
2018-10-03T06:19:17.171Z,89.35
2018-10-03T06:20:17.089Z,89.59
2018-10-03T06:21:17.238Z,89.53
2018-10-03T06:22:17.156Z,89.57
2018-10-03T06:23:17.117Z,89.45
2018-10-03T06:24:17.142Z,89.94
2018-10-03T06:25:17.102Z,89.7
2018-10-03T06:26:17.154Z,89.84
2018-10-03T06:27:17.042Z,89.9
2018-10-03T06:28:17.559Z,90.08
2018-10-03T06:29:17.177Z,89.91
2018-10-03T06:30:17.043Z,89.88
2018-10-03T06:31:17.229Z,90.12
2018-10-03T06:32:17.154Z,90.08
2018-10-03T06:33:17.212Z,90.28
2018-10-03T06:34:17.083Z,89.66
2018-10-03T06:35:17.280Z,90.18
2018-10-03T06:36:18.170Z,90.13
2018-10-03T06:37:17.028Z,90.26
2018-10-03T06:38:17.073Z,90.17
2018-10-03T06:39:17.300Z,90.36
2018-10-03T06:40:17.166Z,90.46
2018-10-03T06:41:17.058Z,90.41
2018-10-03T06:42:17.109Z,90.49
2018-10-03T06:43:17.027Z,90.6
2018-10-03T06:44:17.218Z,90.63
2018-10-03T06:45:17.224Z,90.93
2018-10-03T06:46:17.015Z,90.54
2018-10-03T06:47:17.054Z,90.51
2018-10-03T06:48:17.057Z,90.7
2018-10-03T06:49:17.016Z,90.81
2018-10-03T06:50:17.008Z,90.67
2018-10-03T06:51:17.033Z,90.66
2018-10-03T06:52:17.209Z,90.76
2018-10-03T06:54:17.119Z,90.55
2018-10-03T06:55:17.227Z,90.47
2018-10-03T06:56:17.362Z,90.51
2018-10-03T06:57:16.962Z,90.39
2018-10-03T06:58:17.161Z,90.54
2018-10-03T06:59:17.297Z,90.56
2018-10-03T07:00:17.126Z,90.43
2018-10-03T07:01:17.113Z,90.66
2018-10-03T07:02:17.114Z,90.58
2018-10-03T07:03:16.929Z,90.56
2018-10-03T07:04:17.189Z,90.52
2018-10-03T07:05:17.028Z,90.44
2018-10-03T07:06:17.111Z,90.35
2018-10-03T07:07:17.123Z,90.23
2018-10-03T07:08:17.274Z,90.22
2018-10-03T07:09:16.991Z,90.34
2018-10-03T07:10:17.196Z,90.06
2018-10-03T07:11:17.217Z,89.96
2018-10-03T07:12:17.091Z,89.94
2018-10-03T07:13:17.038Z,89.87
2018-10-03T07:14:17.093Z,89.86
2018-10-03T07:15:17.237Z,89.75
2018-10-03T07:16:17.139Z,89.87
2018-10-03T07:17:16.997Z,89.68
2018-10-03T07:18:17.014Z,89.79
2018-10-03T07:19:16.955Z,89.74
2018-10-03T07:20:17.526Z,89.62
2018-10-03T07:21:24.277Z,89.79
2018-10-03T07:22:17.043Z,89.54
2018-10-03T07:23:16.985Z,89.41
2018-10-03T07:24:17.219Z,89.42
2018-10-03T07:25:16.938Z,89.49
2018-10-03T07:26:17.383Z,89.47
2018-10-03T07:27:17.044Z,89.38
2018-10-03T07:28:17.086Z,89.45
2018-10-03T07:29:17.112Z,89.25
2018-10-03T07:30:17.033Z,89.07
2018-10-03T07:31:17.120Z,89.26
2018-10-03T07:32:16.979Z,89.48
2018-10-03T07:33:17.046Z,89.18
2018-10-03T07:34:16.971Z,89.27
2018-10-03T07:35:16.952Z,89.13
2018-10-03T07:36:16.936Z,88.94
2018-10-03T07:37:16.916Z,89.04
2018-10-03T07:38:17.012Z,88.84
2018-10-03T07:39:17.055Z,88.85
2018-10-03T07:40:17.138Z,88.7
2018-10-03T07:41:17.003Z,88.61
2018-10-03T07:42:17.766Z,88.49
2018-10-03T07:43:17.157Z,88.58
2018-10-03T07:44:17.618Z,88.51
2018-10-03T07:45:17.266Z,88.38
2018-10-03T07:46:16.973Z,88.31
2018-10-03T07:47:17.321Z,88.37
2018-10-03T07:48:17.269Z,88.4
2018-10-03T07:49:17.023Z,88.4
2018-10-03T07:50:17.049Z,88.47
2018-10-03T07:51:16.933Z,88.2
2018-10-03T07:52:16.959Z,88.32
2018-10-03T07:53:17.087Z,88.26
2018-10-03T07:54:17.203Z,88.05
2018-10-03T07:55:17.269Z,88.07
2018-10-03T07:56:17.543Z,88.23
2018-10-03T07:57:16.997Z,88.12
2018-10-03T07:58:17.046Z,88.27
2018-10-03T07:59:17.065Z,87.77
2018-10-03T08:00:17.053Z,88.02
2018-10-03T08:01:16.953Z,87.73
2018-10-03T08:02:16.940Z,88.08
2018-10-03T08:03:16.860Z,87.92
2018-10-03T08:04:16.884Z,87.54
2018-10-03T08:05:17.121Z,87.46
2018-10-03T08:06:17.086Z,87.53
2018-10-03T08:07:16.852Z,87.73
2018-10-03T08:08:17.051Z,87.61
2018-10-03T08:09:17.017Z,87.59
2018-10-03T08:10:16.866Z,87.41
2018-10-03T08:11:16.922Z,87.26
2018-10-03T08:12:16.887Z,87.23
2018-10-03T08:13:17.106Z,87.58
2018-10-03T08:14:16.982Z,87.36
2018-10-03T08:15:16.908Z,87.18
2018-10-03T08:16:16.886Z,87.03
2018-10-03T08:17:17.270Z,87.15
2018-10-03T08:18:17.106Z,87.31
2018-10-03T08:19:17.118Z,87.13
2018-10-03T08:20:16.866Z,87.18
2018-10-03T08:21:16.825Z,86.83
2018-10-03T08:22:16.935Z,86.67
2018-10-03T08:23:16.892Z,86.67
2018-10-03T08:24:16.896Z,86.67
2018-10-03T08:25:17.137Z,86.71
2018-10-03T08:26:16.875Z,86.4
2018-10-03T08:27:17.058Z,86.21
2018-10-03T08:28:17.037Z,85.95
2018-10-03T08:29:16.876Z,86.2
2018-10-03T08:30:16.848Z,86.17
2018-10-03T08:31:17.227Z,85.94
2018-10-03T08:32:17.298Z,85.98
2018-10-03T08:33:17.297Z,86.01
2018-10-03T08:34:16.890Z,85.56
2018-10-03T08:35:16.891Z,85.59
2018-10-03T08:36:16.840Z,85.58
2018-10-03T08:37:16.983Z,85.64
2018-10-03T08:38:16.957Z,85.89
2018-10-03T08:39:17.027Z,85.66
2018-10-03T08:40:17.083Z,85.39
2018-10-03T08:41:17.326Z,85.12
2018-10-03T08:42:17.043Z,85.29
2018-10-03T08:43:16.860Z,85.22
2018-10-03T08:44:16.935Z,84.91
2018-10-03T08:45:16.873Z,84.67
2018-10-03T08:46:17.083Z,84.63
2018-10-03T08:47:16.978Z,84.74
2018-10-03T08:48:17.037Z,84.12
2018-10-03T08:49:17.105Z,84.26
2018-10-03T08:50:17.107Z,83.97
2018-10-03T08:51:17.022Z,83.63
2018-10-03T08:52:17.079Z,83.47
2018-10-03T08:53:16.835Z,83.53
2018-10-03T08:54:17.496Z,82.77
2018-10-03T08:55:16.803Z,82.91
2018-10-03T08:56:16.844Z,82.87
2018-10-03T08:57:16.985Z,82.83
2018-10-03T08:58:17.482Z,82.95
2018-10-03T08:59:16.812Z,82.99
2018-10-03T09:00:16.989Z,82.82
2018-10-03T09:01:16.794Z,82.61
2018-10-03T09:02:17.000Z,82.49
2018-10-03T09:03:16.791Z,82.36
2018-10-03T09:04:16.789Z,82.57
2018-10-03T09:05:16.879Z,82.39
2018-10-03T09:06:16.995Z,81.5
2018-10-03T09:07:16.880Z,81.35
2018-10-03T09:08:16.851Z,80.98
2018-10-03T09:09:16.815Z,80.68
2018-10-03T09:10:17.010Z,80.63
2018-10-03T09:11:16.842Z,80.5
2018-10-03T09:12:16.791Z,80.32
2018-10-03T09:13:16.785Z,80.72
2018-10-03T09:14:17.028Z,80.67
2018-10-03T09:15:17.048Z,80.7
2018-10-03T09:16:16.890Z,80.81
2018-10-03T09:17:16.877Z,80.44
2018-10-03T09:18:17.050Z,80.57
2018-10-03T09:19:17.113Z,80.88
2018-10-03T09:20:16.800Z,80.6
2018-10-03T09:21:17.196Z,80.75
2018-10-03T09:22:16.791Z,80.05
2018-10-03T09:23:16.770Z,79.72
2018-10-03T09:24:16.932Z,79.55
2018-10-03T09:25:17.004Z,79.45
2018-10-03T09:26:17.034Z,79.22
2018-10-03T09:27:16.824Z,79.02
2018-10-03T09:28:17.053Z,78.97
2018-10-03T09:29:16.852Z,78.48
2018-10-03T09:30:16.745Z,78.54
2018-10-03T09:31:16.876Z,78.46
2018-10-03T09:32:16.849Z,78.59
2018-10-03T09:33:16.735Z,78.84
2018-10-03T09:34:16.861Z,78.9
2018-10-03T09:35:17.057Z,78.89
2018-10-03T09:36:16.987Z,79.01
2018-10-03T09:37:16.740Z,78.98
2018-10-03T09:38:16.781Z,78.96
2018-10-03T09:39:16.746Z,79.05
2018-10-03T09:40:16.803Z,79.16
2018-10-03T09:41:19.062Z,79.01
2018-10-03T09:43:18.132Z,78.94
2018-10-03T09:44:16.879Z,78.86
2018-10-03T09:45:16.800Z,78.86
2018-10-03T09:46:16.725Z,78.61
2018-10-03T09:47:16.773Z,78.69
2018-10-03T09:49:16.371Z,78.1
2018-10-03T09:50:16.756Z,78.06
2018-10-03T09:51:16.765Z,78.04
2018-10-03T09:52:16.984Z,78.33
2018-10-03T09:53:17.020Z,77.68
2018-10-03T09:54:16.871Z,77.76
2018-10-03T09:55:16.752Z,78.01
2018-10-03T09:56:16.915Z,78.11
2018-10-03T09:57:16.902Z,77.83
2018-10-03T09:58:16.751Z,77.36
2018-10-03T09:59:16.711Z,77.08
2018-10-03T10:00:17.050Z,77.27
2018-10-03T10:01:16.820Z,77.49
2018-10-03T10:02:16.749Z,77.66
2018-10-03T10:03:16.842Z,77.46
2018-10-03T10:04:17.974Z,77.36
2018-10-03T10:05:16.775Z,77.19
2018-10-03T10:06:16.797Z,77.16
2018-10-03T10:07:16.707Z,76.92
2018-10-03T10:08:16.916Z,76.75
2018-10-03T10:09:16.880Z,76.68
2018-10-03T10:10:17.241Z,76.05
2018-10-03T10:11:17.557Z,75.91
2018-10-03T10:12:17.081Z,75.67
2018-10-03T10:13:16.792Z,75.79
2018-10-03T10:14:17.061Z,76.06
2018-10-03T10:15:16.807Z,76.35
2018-10-03T10:16:16.737Z,76.43
2018-10-03T10:17:16.695Z,76.74
2018-10-03T10:18:16.750Z,76.41
2018-10-03T10:19:16.789Z,76.14
2018-10-03T10:20:16.836Z,76.3
2018-10-03T10:21:16.817Z,76.28
2018-10-03T10:22:16.786Z,76.34
2018-10-03T10:23:16.999Z,76.22
2018-10-03T10:24:16.675Z,75.54
2018-10-03T10:25:16.698Z,75.74
2018-10-03T10:26:16.672Z,75.47
2018-10-03T10:27:16.817Z,75.67
2018-10-03T10:28:16.696Z,75.54
2018-10-03T10:29:16.700Z,75.44
2018-10-03T10:30:17.064Z,75.4
2018-10-03T10:31:16.744Z,75.91
2018-10-03T10:32:17.446Z,75.99
2018-10-03T10:33:16.719Z,75.27
2018-10-03T10:34:17.041Z,75.22
2018-10-03T10:35:16.678Z,75.08
2018-10-03T10:36:16.780Z,74.1
2018-10-03T10:37:16.673Z,73.87
2018-10-03T10:38:17.091Z,73.51
2018-10-03T10:39:16.689Z,74.01
2018-10-03T10:40:17.740Z,74.51
2018-10-03T10:41:17.697Z,74.56
2018-10-03T10:42:16.719Z,74.36
2018-10-03T10:43:17.088Z,74.47
2018-10-03T10:44:17.009Z,74.56
2018-10-03T10:45:16.918Z,74.74
2018-10-03T10:46:16.822Z,75.02
2018-10-03T10:47:16.868Z,74.95
2018-10-03T10:48:16.887Z,73.84
2018-10-03T10:49:16.633Z,73.89
2018-10-03T10:50:17.317Z,73.97
2018-10-03T10:51:16.890Z,74.03
2018-10-03T10:52:16.764Z,74.21
2018-10-03T10:53:17.003Z,74.04
2018-10-03T10:54:16.874Z,73.6
2018-10-03T10:55:16.926Z,73.64
2018-10-03T10:56:16.888Z,73.99
2018-10-03T10:57:16.894Z,73.91
2018-10-03T10:58:16.687Z,73.93
2018-10-03T10:59:16.847Z,73.91
2018-10-03T11:00:16.995Z,73.91
2018-10-03T11:01:17.252Z,73.37
2018-10-03T11:02:16.828Z,73.7
2018-10-03T11:03:16.837Z,73.59
2018-10-03T11:04:16.858Z,73.32
2018-10-03T11:05:16.851Z,73.66
2018-10-03T11:06:17.156Z,73.27
2018-10-03T11:07:16.781Z,73.18
2018-10-03T11:08:16.733Z,73.1
2018-10-03T11:09:16.780Z,73.26
2018-10-03T11:10:16.791Z,73.4
2018-10-03T11:11:16.804Z,72.95
2018-10-03T11:12:17.989Z,72.39
2018-10-03T11:13:17.671Z,72.83
2018-10-03T11:14:16.629Z,72.75
2018-10-03T11:15:16.649Z,72.41
2018-10-03T11:16:16.655Z,72.49
2018-10-03T11:17:16.670Z,72.36
2018-10-03T11:18:16.613Z,72.63
2018-10-03T11:19:16.646Z,72.65
2018-10-03T11:20:16.746Z,73.33
2018-10-03T11:21:16.632Z,73.46
2018-10-03T11:22:16.690Z,73.6
2018-10-03T11:23:16.879Z,73.71
2018-10-03T11:24:17.266Z,73.62
2018-10-03T11:25:16.810Z,73.39
2018-10-03T11:26:16.785Z,73.43
2018-10-03T11:27:16.745Z,73.81
2018-10-03T11:28:16.759Z,73.53
2018-10-03T11:29:16.271Z,73.62
2018-10-03T11:30:16.631Z,73.52
2018-10-03T11:31:16.620Z,73.24
2018-10-03T11:32:17.414Z,73.1
2018-10-03T11:33:16.731Z,73.41
2018-10-03T11:34:16.611Z,73.51
2018-10-03T11:35:16.793Z,73.8
2018-10-03T11:36:16.640Z,73.25
2018-10-03T11:37:16.793Z,73.29
2018-10-03T11:38:17.017Z,73.38
2018-10-03T11:39:16.906Z,72.97
2018-10-03T11:40:16.871Z,73.26
2018-10-03T11:41:16.592Z,72.94
2018-10-03T11:42:16.713Z,72.94
2018-10-03T11:43:16.587Z,73.05
2018-10-03T11:44:16.746Z,72.94
2018-10-03T11:45:16.609Z,72.87
2018-10-03T11:46:16.579Z,72.56
2018-10-03T11:47:16.698Z,72.75
2018-10-03T11:48:16.694Z,72.85
2018-10-03T11:49:16.572Z,72.68
2018-10-03T11:50:16.656Z,72.29
2018-10-03T11:51:16.767Z,72.29
2018-10-03T11:52:16.772Z,72.27
2018-10-03T11:53:16.577Z,72.04
2018-10-03T11:54:16.590Z,72.19
2018-10-03T11:55:16.559Z,71.81
2018-10-03T11:56:16.846Z,71.48
2018-10-03T11:57:16.663Z,71.4
2018-10-03T11:58:16.609Z,71.41
2018-10-03T11:59:16.693Z,71.19
2018-10-03T12:00:16.623Z,71.22
2018-10-03T12:01:16.720Z,71.04
2018-10-03T12:02:16.848Z,71.21
2018-10-03T12:03:17.350Z,71.12
2018-10-03T12:04:16.765Z,70.64
2018-10-03T12:05:16.579Z,70.59
2018-10-03T12:06:16.576Z,70.86
2018-10-03T12:07:16.592Z,70.47
2018-10-03T12:08:17.388Z,70.86
2018-10-03T12:09:16.944Z,71
2018-10-03T12:10:16.806Z,70.6
2018-10-03T12:11:16.656Z,70.5
2018-10-03T12:12:16.603Z,70.28
2018-10-03T12:13:16.705Z,69.78
2018-10-03T12:14:16.615Z,70.04
2018-10-03T12:15:16.692Z,70.17
2018-10-03T12:16:16.565Z,69.5
2018-10-03T12:17:16.701Z,69.5
2018-10-03T12:18:16.570Z,69.67
2018-10-03T12:19:16.717Z,70.28
2018-10-03T12:20:16.674Z,70.56
2018-10-03T12:21:16.765Z,70.61
2018-10-03T12:22:16.535Z,70.73
2018-10-03T12:23:16.614Z,70.51
2018-10-03T12:24:16.695Z,70.78
2018-10-03T12:25:17.165Z,70.59
2018-10-03T12:26:16.531Z,70.59
2018-10-03T12:27:16.549Z,70.36
2018-10-03T12:28:16.523Z,70.21
2018-10-03T12:29:16.718Z,69.84
2018-10-03T12:30:16.944Z,70.24
2018-10-03T12:31:20.858Z,69.68
2018-10-03T12:32:16.339Z,69.74
2018-10-03T12:33:16.877Z,69.95
2018-10-03T12:34:16.536Z,70.04
2018-10-03T12:35:16.695Z,70.19
2018-10-03T12:36:16.548Z,70.24
2018-10-03T12:37:16.522Z,69.97
2018-10-03T12:38:16.510Z,69.72
2018-10-03T12:39:16.502Z,69.66
2018-10-03T12:40:16.717Z,69.64
2018-10-03T12:41:16.690Z,69.4
2018-10-03T12:42:16.701Z,68.89
2018-10-03T12:43:16.699Z,69.22
2018-10-03T12:44:16.807Z,69.57
2018-10-03T12:45:16.733Z,69.04
2018-10-03T12:46:16.669Z,68.63
2018-10-03T12:47:16.596Z,68.68
2018-10-03T12:48:16.644Z,68.84
2018-10-03T12:49:16.524Z,68.66
2018-10-03T12:50:16.533Z,68.68
2018-10-03T12:51:16.774Z,68.58
2018-10-03T12:52:16.580Z,68.94
2018-10-03T12:53:16.494Z,69.12
2018-10-03T12:54:16.563Z,68.77
2018-10-03T12:55:16.576Z,68.74
2018-10-03T12:56:16.632Z,67.49
2018-10-03T12:57:16.617Z,67.4
2018-10-03T12:58:16.609Z,67.39
2018-10-03T12:59:16.752Z,67.43